sensor_id;sensor_type;location;lat;lon;timestamp;P1;durP1;ratioP1;P2;durP2;ratioP2
22733;SDS011;11534;51.994;5.692;2022-10-16T00:01:19;6.32;;;2.83;;
22733;SDS011;11534;51.994;5.692;2022-10-16T00:03:46;7.10;;;2.97;;
22733;SDS011;11534;51.994;5.692;2022-10-16T00:06:13;8.82;;;3.58;;
22733;SDS011;11534;51.994;5.692;2022-10-16T00:08:40;8.48;;;2.88;;
22733;SDS011;11534;51.994;5.692;2022-10-16T00:11:10;7.53;;;3.38;;
22733;SDS011;11534;51.994;5.692;2022-10-16T00:13:39;4.28;;;2.78;;
22733;SDS011;11534;51.994;5.692;2022-10-16T00:16:06;4.50;;;2.80;;
22733;SDS011;11534;51.994;5.692;2022-10-16T00:18:33;7.97;;;3.38;;
22733;SDS011;11534;51.994;5.692;2022-10-16T00:21:16;10.43;;;3.03;;
22733;SDS011;11534;51.994;5.692;2022-10-16T00:23:44;7.88;;;3.40;;
22733;SDS011;11534;51.994;5.692;2022-10-16T00:26:12;8.75;;;3.65;;
22733;SDS011;11534;51.994;5.692;2022-10-16T00:28:39;17.70;;;3.92;;
22733;SDS011;11534;51.994;5.692;2022-10-16T00:31:06;7.00;;;3.63;;
22733;SDS011;11534;51.994;5.692;2022-10-16T00:33:33;7.97;;;3.60;;
22733;SDS011;11534;51.994;5.692;2022-10-16T00:36:00;9.85;;;3.70;;
22733;SDS011;11534;51.994;5.692;2022-10-16T00:38:26;12.20;;;3.10;;
22733;SDS011;11534;51.994;5.692;2022-10-16T00:40:52;9.63;;;4.38;;
22733;SDS011;11534;51.994;5.692;2022-10-16T00:46:23;10.00;;;3.60;;
22733;SDS011;11534;51.994;5.692;2022-10-16T00:49:10;10.55;;;3.47;;
22733;SDS011;11534;51.994;5.692;2022-10-16T00:51:40;6.88;;;3.25;;
22733;SDS011;11534;51.994;5.692;2022-10-16T00:54:10;11.60;;;4.05;;
22733;SDS011;11534;51.994;5.692;2022-10-16T00:56:43;7.40;;;3.40;;
22733;SDS011;11534;51.994;5.692;2022-10-16T00:59:19;12.02;;;3.60;;
22733;SDS011;11534;51.994;5.692;2022-10-16T01:01:49;9.50;;;3.78;;
22733;SDS011;11534;51.994;5.692;2022-10-16T01:04:15;9.15;;;3.90;;
22733;SDS011;11534;51.994;5.692;2022-10-16T01:06:52;11.57;;;4.20;;
22733;SDS011;11534;51.994;5.692;2022-10-16T01:18:11;7.05;;;4.13;;
22733;SDS011;11534;51.994;5.692;2022-10-16T01:21:20;9.00;;;4.38;;
22733;SDS011;11534;51.994;5.692;2022-10-16T01:32:27;5.95;;;3.65;;
22733;SDS011;11534;51.994;5.692;2022-10-16T01:34:49;6.45;;;3.22;;
22733;SDS011;11534;51.994;5.692;2022-10-16T01:37:41;6.72;;;4.00;;
22733;SDS011;11534;51.994;5.692;2022-10-16T01:40:09;7.90;;;3.53;;
22733;SDS011;11534;51.994;5.692;2022-10-16T01:42:41;12.77;;;4.10;;
22733;SDS011;11534;51.994;5.692;2022-10-16T01:45:10;7.30;;;3.70;;
22733;SDS011;11534;51.994;5.692;2022-10-16T01:47:39;8.02;;;3.63;;
22733;SDS011;11534;51.994;5.692;2022-10-16T01:50:06;11.77;;;3.95;;
22733;SDS011;11534;51.994;5.692;2022-10-16T01:52:35;7.32;;;3.85;;
22733;SDS011;11534;51.994;5.692;2022-10-16T01:55:04;5.75;;;3.88;;
22733;SDS011;11534;51.994;5.692;2022-10-16T01:57:33;7.38;;;3.63;;
22733;SDS011;11534;51.994;5.692;2022-10-16T02:00:03;8.80;;;4.60;;
22733;SDS011;11534;51.994;5.692;2022-10-16T02:02:32;8.90;;;4.43;;
22733;SDS011;11534;51.994;5.692;2022-10-16T02:05:09;6.85;;;4.15;;
22733;SDS011;11534;51.994;5.692;2022-10-16T02:07:41;5.40;;;4.10;;
22733;SDS011;11534;51.994;5.692;2022-10-16T02:10:07;5.50;;;3.78;;
22733;SDS011;11534;51.994;5.692;2022-10-16T02:12:33;4.90;;;3.85;;
22733;SDS011;11534;51.994;5.692;2022-10-16T02:15:04;6.32;;;3.80;;
22733;SDS011;11534;51.994;5.692;2022-10-16T02:17:31;10.32;;;3.75;;
22733;SDS011;11534;51.994;5.692;2022-10-16T02:19:57;6.90;;;3.55;;
22733;SDS011;11534;51.994;5.692;2022-10-16T02:22:28;11.88;;;3.65;;
22733;SDS011;11534;51.994;5.692;2022-10-16T02:28:03;8.07;;;3.25;;
22733;SDS011;11534;51.994;5.692;2022-10-16T02:30:42;7.68;;;3.72;;
22733;SDS011;11534;51.994;5.692;2022-10-16T02:33:15;4.75;;;3.13;;
22733;SDS011;11534;51.994;5.692;2022-10-16T02:35:43;5.45;;;2.95;;
22733;SDS011;11534;51.994;5.692;2022-10-16T02:38:11;4.55;;;3.35;;
22733;SDS011;11534;51.994;5.692;2022-10-16T02:40:39;7.65;;;3.25;;
22733;SDS011;11534;51.994;5.692;2022-10-16T02:43:05;8.38;;;3.83;;
22733;SDS011;11534;51.994;5.692;2022-10-16T02:45:31;7.93;;;3.63;;
22733;SDS011;11534;51.994;5.692;2022-10-16T02:47:58;4.93;;;2.95;;
22733;SDS011;11534;51.994;5.692;2022-10-16T02:50:24;9.48;;;3.25;;
22733;SDS011;11534;51.994;5.692;2022-10-16T02:52:50;6.05;;;3.20;;
22733;SDS011;11534;51.994;5.692;2022-10-16T02:55:16;7.15;;;3.15;;
22733;SDS011;11534;51.994;5.692;2022-10-16T02:57:42;4.70;;;3.25;;
22733;SDS011;11534;51.994;5.692;2022-10-16T03:00:12;6.10;;;3.10;;
22733;SDS011;11534;51.994;5.692;2022-10-16T03:02:39;4.68;;;3.13;;
22733;SDS011;11534;51.994;5.692;2022-10-16T03:05:05;4.70;;;3.15;;
22733;SDS011;11534;51.994;5.692;2022-10-16T03:07:31;3.67;;;3.08;;
22733;SDS011;11534;51.994;5.692;2022-10-16T03:09:57;5.13;;;3.08;;
22733;SDS011;11534;51.994;5.692;2022-10-16T03:12:25;6.20;;;3.33;;
22733;SDS011;11534;51.994;5.692;2022-10-16T03:14:54;4.90;;;3.00;;
22733;SDS011;11534;51.994;5.692;2022-10-16T03:17:21;14.10;;;4.28;;
22733;SDS011;11534;51.994;5.692;2022-10-16T03:19:47;5.88;;;3.20;;
22733;SDS011;11534;51.994;5.692;2022-10-16T03:22:13;16.05;;;3.40;;
22733;SDS011;11534;51.994;5.692;2022-10-16T03:24:39;7.07;;;3.30;;
22733;SDS011;11534;51.994;5.692;2022-10-16T03:27:04;8.77;;;3.10;;
22733;SDS011;11534;51.994;5.692;2022-10-16T03:29:30;5.38;;;3.50;;
22733;SDS011;11534;51.994;5.692;2022-10-16T03:31:57;4.78;;;3.60;;
22733;SDS011;11534;51.994;5.692;2022-10-16T03:34:23;6.32;;;3.25;;
22733;SDS011;11534;51.994;5.692;2022-10-16T03:36:49;7.35;;;3.40;;
22733;SDS011;11534;51.994;5.692;2022-10-16T03:39:15;7.70;;;2.92;;
22733;SDS011;11534;51.994;5.692;2022-10-16T03:41:41;4.35;;;3.25;;
22733;SDS011;11534;51.994;5.692;2022-10-16T03:44:06;5.30;;;3.20;;
22733;SDS011;11534;51.994;5.692;2022-10-16T03:46:32;4.10;;;2.85;;
22733;SDS011;11534;51.994;5.692;2022-10-16T03:48:59;5.53;;;3.20;;
22733;SDS011;11534;51.994;5.692;2022-10-16T03:51:25;4.93;;;3.00;;
22733;SDS011;11534;51.994;5.692;2022-10-16T03:53:50;6.53;;;2.60;;
22733;SDS011;11534;51.994;5.692;2022-10-16T03:56:16;6.10;;;2.70;;
22733;SDS011;11534;51.994;5.692;2022-10-16T03:58:43;8.93;;;3.03;;
22733;SDS011;11534;51.994;5.692;2022-10-16T04:01:08;8.18;;;2.50;;
22733;SDS011;11534;51.994;5.692;2022-10-16T04:03:34;4.10;;;2.72;;
22733;SDS011;11534;51.994;5.692;2022-10-16T04:05:59;5.47;;;2.83;;
22733;SDS011;11534;51.994;5.692;2022-10-16T04:08:25;2.80;;;2.50;;
22733;SDS011;11534;51.994;5.692;2022-10-16T04:10:51;6.20;;;2.63;;
22733;SDS011;11534;51.994;5.692;2022-10-16T04:13:16;4.75;;;2.42;;
22733;SDS011;11534;51.994;5.692;2022-10-16T04:15:42;5.20;;;2.67;;
22733;SDS011;11534;51.994;5.692;2022-10-16T04:18:10;4.28;;;2.80;;
22733;SDS011;11534;51.994;5.692;2022-10-16T04:20:35;4.10;;;2.35;;
22733;SDS011;11534;51.994;5.692;2022-10-16T04:23:01;4.68;;;2.97;;
22733;SDS011;11534;51.994;5.692;2022-10-16T04:25:27;7.88;;;3.08;;
22733;SDS011;11534;51.994;5.692;2022-10-16T04:27:53;5.38;;;3.10;;
22733;SDS011;11534;51.994;5.692;2022-10-16T04:30:19;5.45;;;2.83;;
22733;SDS011;11534;51.994;5.692;2022-10-16T04:32:49;4.82;;;2.60;;
22733;SDS011;11534;51.994;5.692;2022-10-16T04:35:19;4.32;;;3.00;;
22733;SDS011;11534;51.994;5.692;2022-10-16T04:37:46;7.18;;;3.00;;
22733;SDS011;11534;51.994;5.692;2022-10-16T04:40:12;6.85;;;2.70;;
22733;SDS011;11534;51.994;5.692;2022-10-16T04:42:38;3.35;;;2.55;;
22733;SDS011;11534;51.994;5.692;2022-10-16T04:45:04;8.50;;;2.90;;
22733;SDS011;11534;51.994;5.692;2022-10-16T04:47:30;6.18;;;2.63;;
22733;SDS011;11534;51.994;5.692;2022-10-16T04:49:56;4.57;;;2.47;;
22733;SDS011;11534;51.994;5.692;2022-10-16T04:52:23;6.28;;;3.25;;
22733;SDS011;11534;51.994;5.692;2022-10-16T04:54:50;4.97;;;2.67;;
22733;SDS011;11534;51.994;5.692;2022-10-16T04:57:16;6.13;;;2.67;;
22733;SDS011;11534;51.994;5.692;2022-10-16T04:59:42;3.40;;;2.47;;
22733;SDS011;11534;51.994;5.692;2022-10-16T05:02:07;6.25;;;2.95;;
22733;SDS011;11534;51.994;5.692;2022-10-16T05:04:33;8.85;;;2.95;;
22733;SDS011;11534;51.994;5.692;2022-10-16T05:06:59;3.85;;;2.47;;
22733;SDS011;11534;51.994;5.692;2022-10-16T05:09:26;2.85;;;2.53;;
22733;SDS011;11534;51.994;5.692;2022-10-16T05:11:51;3.50;;;2.80;;
22733;SDS011;11534;51.994;5.692;2022-10-16T05:14:17;5.72;;;2.85;;
22733;SDS011;11534;51.994;5.692;2022-10-16T05:16:43;8.13;;;3.42;;
22733;SDS011;11534;51.994;5.692;2022-10-16T05:19:09;5.95;;;2.90;;
22733;SDS011;11534;51.994;5.692;2022-10-16T05:21:35;6.47;;;3.65;;
22733;SDS011;11534;51.994;5.692;2022-10-16T05:24:00;7.65;;;2.75;;
22733;SDS011;11534;51.994;5.692;2022-10-16T05:26:26;6.25;;;2.92;;
22733;SDS011;11534;51.994;5.692;2022-10-16T05:28:52;8.18;;;3.72;;
22733;SDS011;11534;51.994;5.692;2022-10-16T05:31:17;6.65;;;3.85;;
22733;SDS011;11534;51.994;5.692;2022-10-16T05:33:43;6.57;;;3.70;;
22733;SDS011;11534;51.994;5.692;2022-10-16T05:36:09;8.48;;;3.70;;
22733;SDS011;11534;51.994;5.692;2022-10-16T05:38:35;5.35;;;3.53;;
22733;SDS011;11534;51.994;5.692;2022-10-16T05:41:02;7.35;;;3.78;;
22733;SDS011;11534;51.994;5.692;2022-10-16T05:43:29;7.40;;;4.07;;
22733;SDS011;11534;51.994;5.692;2022-10-16T05:45:59;5.63;;;3.97;;
22733;SDS011;11534;51.994;5.692;2022-10-16T05:48:28;5.70;;;3.88;;
22733;SDS011;11534;51.994;5.692;2022-10-16T05:51:00;8.52;;;3.80;;
22733;SDS011;11534;51.994;5.692;2022-10-16T05:53:32;6.10;;;4.82;;
22733;SDS011;11534;51.994;5.692;2022-10-16T05:55:59;8.52;;;4.57;;
22733;SDS011;11534;51.994;5.692;2022-10-16T05:58:28;8.02;;;5.15;;
22733;SDS011;11534;51.994;5.692;2022-10-16T06:00:56;8.18;;;5.60;;
22733;SDS011;11534;51.994;5.692;2022-10-16T06:03:26;6.60;;;4.68;;
22733;SDS011;11534;51.994;5.692;2022-10-16T06:05:52;6.65;;;4.70;;
22733;SDS011;11534;51.994;5.692;2022-10-16T06:08:18;6.50;;;4.53;;
22733;SDS011;11534;51.994;5.692;2022-10-16T06:10:45;8.43;;;3.80;;
22733;SDS011;11534;51.994;5.692;2022-10-16T06:13:11;6.13;;;3.40;;
22733;SDS011;11534;51.994;5.692;2022-10-16T06:15:38;7.43;;;3.00;;
22733;SDS011;11534;51.994;5.692;2022-10-16T06:18:06;6.05;;;3.00;;
22733;SDS011;11534;51.994;5.692;2022-10-16T06:20:32;9.30;;;3.33;;
22733;SDS011;11534;51.994;5.692;2022-10-16T06:22:58;4.57;;;3.05;;
22733;SDS011;11534;51.994;5.692;2022-10-16T06:25:24;5.35;;;2.90;;
22733;SDS011;11534;51.994;5.692;2022-10-16T06:27:49;3.75;;;2.30;;
22733;SDS011;11534;51.994;5.692;2022-10-16T06:30:15;4.57;;;2.90;;
22733;SDS011;11534;51.994;5.692;2022-10-16T06:32:41;6.03;;;2.97;;
22733;SDS011;11534;51.994;5.692;2022-10-16T06:35:06;4.20;;;2.55;;
22733;SDS011;11534;51.994;5.692;2022-10-16T06:37:32;4.72;;;3.13;;
22733;SDS011;11534;51.994;5.692;2022-10-16T06:39:58;6.88;;;2.53;;
22733;SDS011;11534;51.994;5.692;2022-10-16T06:42:25;7.13;;;3.05;;
22733;SDS011;11534;51.994;5.692;2022-10-16T06:44:51;6.25;;;3.00;;
22733;SDS011;11534;51.994;5.692;2022-10-16T06:47:16;3.72;;;2.80;;
22733;SDS011;11534;51.994;5.692;2022-10-16T06:49:42;3.70;;;2.40;;
22733;SDS011;11534;51.994;5.692;2022-10-16T06:52:08;8.45;;;3.20;;
22733;SDS011;11534;51.994;5.692;2022-10-16T06:54:33;5.20;;;2.90;;
22733;SDS011;11534;51.994;5.692;2022-10-16T06:56:59;3.80;;;2.50;;
22733;SDS011;11534;51.994;5.692;2022-10-16T06:59:26;7.35;;;2.67;;
22733;SDS011;11534;51.994;5.692;2022-10-16T07:01:52;4.30;;;3.20;;
22733;SDS011;11534;51.994;5.692;2022-10-16T07:04:17;6.07;;;2.72;;
22733;SDS011;11534;51.994;5.692;2022-10-16T07:06:43;6.32;;;3.25;;
22733;SDS011;11534;51.994;5.692;2022-10-16T07:09:09;7.70;;;3.85;;
22733;SDS011;11534;51.994;5.692;2022-10-16T07:11:36;5.43;;;3.42;;
22733;SDS011;11534;51.994;5.692;2022-10-16T07:14:03;6.85;;;3.67;;
22733;SDS011;11534;51.994;5.692;2022-10-16T07:16:30;6.03;;;4.25;;
22733;SDS011;11534;51.994;5.692;2022-10-16T07:18:57;6.57;;;4.03;;
22733;SDS011;11534;51.994;5.692;2022-10-16T07:21:25;8.35;;;3.72;;
22733;SDS011;11534;51.994;5.692;2022-10-16T07:23:54;7.65;;;4.05;;
22733;SDS011;11534;51.994;5.692;2022-10-16T07:26:24;9.20;;;3.80;;
22733;SDS011;11534;51.994;5.692;2022-10-16T07:28:50;6.82;;;3.55;;
22733;SDS011;11534;51.994;5.692;2022-10-16T07:31:18;3.90;;;2.72;;
22733;SDS011;11534;51.994;5.692;2022-10-16T07:33:45;6.22;;;3.00;;
22733;SDS011;11534;51.994;5.692;2022-10-16T07:36:12;5.85;;;2.85;;
22733;SDS011;11534;51.994;5.692;2022-10-16T07:38:39;5.70;;;2.85;;
22733;SDS011;11534;51.994;5.692;2022-10-16T07:41:07;10.32;;;2.70;;
22733;SDS011;11534;51.994;5.692;2022-10-16T07:43:40;5.53;;;2.85;;
22733;SDS011;11534;51.994;5.692;2022-10-16T07:46:10;5.90;;;2.72;;
22733;SDS011;11534;51.994;5.692;2022-10-16T07:48:35;4.07;;;2.30;;
22733;SDS011;11534;51.994;5.692;2022-10-16T07:51:02;5.25;;;2.50;;
22733;SDS011;11534;51.994;5.692;2022-10-16T07:53:30;7.53;;;2.67;;
22733;SDS011;11534;51.994;5.692;2022-10-16T07:58:31;5.68;;;3.20;;
22733;SDS011;11534;51.994;5.692;2022-10-16T08:00:58;8.48;;;3.15;;
22733;SDS011;11534;51.994;5.692;2022-10-16T08:05:59;6.57;;;3.08;;
22733;SDS011;11534;51.994;5.692;2022-10-16T08:08:26;7.05;;;3.42;;
22733;SDS011;11534;51.994;5.692;2022-10-16T08:10:53;5.47;;;3.50;;
22733;SDS011;11534;51.994;5.692;2022-10-16T08:13:19;5.00;;;3.05;;
22733;SDS011;11534;51.994;5.692;2022-10-16T08:15:45;4.90;;;3.35;;
22733;SDS011;11534;51.994;5.692;2022-10-16T08:18:12;6.25;;;3.83;;
22733;SDS011;11534;51.994;5.692;2022-10-16T08:20:39;5.43;;;3.38;;
22733;SDS011;11534;51.994;5.692;2022-10-16T08:23:13;9.18;;;3.50;;
22733;SDS011;11534;51.994;5.692;2022-10-16T08:25:40;5.03;;;3.20;;
22733;SDS011;11534;51.994;5.692;2022-10-16T08:28:07;6.60;;;3.25;;
22733;SDS011;11534;51.994;5.692;2022-10-16T08:30:34;5.28;;;3.17;;
22733;SDS011;11534;51.994;5.692;2022-10-16T08:33:01;7.28;;;3.25;;
22733;SDS011;11534;51.994;5.692;2022-10-16T08:35:27;8.40;;;3.72;;
22733;SDS011;11534;51.994;5.692;2022-10-16T08:37:52;13.07;;;3.35;;
22733;SDS011;11534;51.994;5.692;2022-10-16T08:40:23;3.33;;;2.65;;
22733;SDS011;11534;51.994;5.692;2022-10-16T08:47:50;5.32;;;3.28;;
22733;SDS011;11534;51.994;5.692;2022-10-16T08:50:29;6.63;;;3.10;;
22733;SDS011;11534;51.994;5.692;2022-10-16T08:52:57;5.82;;;3.20;;
22733;SDS011;11534;51.994;5.692;2022-10-16T08:55:31;8.40;;;2.88;;
22733;SDS011;11534;51.994;5.692;2022-10-16T09:00:43;7.75;;;2.63;;
22733;SDS011;11534;51.994;5.692;2022-10-16T09:19:53;6.93;;;2.55;;
22733;SDS011;11534;51.994;5.692;2022-10-16T09:22:33;12.32;;;2.72;;
22733;SDS011;11534;51.994;5.692;2022-10-16T09:25:10;5.90;;;2.63;;
22733;SDS011;11534;51.994;5.692;2022-10-16T09:27:40;5.57;;;2.20;;
22733;SDS011;11534;51.994;5.692;2022-10-16T09:30:10;9.73;;;2.83;;
22733;SDS011;11534;51.994;5.692;2022-10-16T09:32:37;10.90;;;2.30;;
22733;SDS011;11534;51.994;5.692;2022-10-16T09:35:11;6.30;;;2.40;;
22733;SDS011;11534;51.994;5.692;2022-10-16T09:37:43;7.80;;;2.47;;
22733;SDS011;11534;51.994;5.692;2022-10-16T09:40:12;8.48;;;2.47;;
22733;SDS011;11534;51.994;5.692;2022-10-16T09:42:50;15.80;;;2.70;;
22733;SDS011;11534;51.994;5.692;2022-10-16T09:45:31;10.75;;;2.42;;
22733;SDS011;11534;51.994;5.692;2022-10-16T09:47:57;10.93;;;2.47;;
22733;SDS011;11534;51.994;5.692;2022-10-16T09:50:24;11.98;;;2.72;;
22733;SDS011;11534;51.994;5.692;2022-10-16T09:53:04;7.63;;;2.80;;
22733;SDS011;11534;51.994;5.692;2022-10-16T09:55:36;14.52;;;2.95;;
22733;SDS011;11534;51.994;5.692;2022-10-16T09:58:13;11.00;;;2.42;;
22733;SDS011;11534;51.994;5.692;2022-10-16T10:00:39;14.05;;;2.72;;
22733;SDS011;11534;51.994;5.692;2022-10-16T10:03:10;9.75;;;2.58;;
22733;SDS011;11534;51.994;5.692;2022-10-16T10:05:37;11.38;;;2.53;;
22733;SDS011;11534;51.994;5.692;2022-10-16T10:08:04;13.30;;;2.47;;
22733;SDS011;11534;51.994;5.692;2022-10-16T10:10:40;13.98;;;2.38;;
22733;SDS011;11534;51.994;5.692;2022-10-16T10:13:19;9.43;;;2.80;;
22733;SDS011;11534;51.994;5.692;2022-10-16T10:15:47;11.98;;;2.60;;
22733;SDS011;11534;51.994;5.692;2022-10-16T10:18:20;17.88;;;2.97;;
22733;SDS011;11534;51.994;5.692;2022-10-16T10:20:58;9.45;;;2.72;;
22733;SDS011;11534;51.994;5.692;2022-10-16T10:23:26;12.93;;;2.58;;
22733;SDS011;11534;51.994;5.692;2022-10-16T10:26:26;6.90;;;2.28;;
22733;SDS011;11534;51.994;5.692;2022-10-16T10:48:03;12.20;;;2.75;;
22733;SDS011;11534;51.994;5.692;2022-10-16T10:50:58;9.73;;;2.35;;
22733;SDS011;11534;51.994;5.692;2022-10-16T10:53:47;11.20;;;2.50;;
22733;SDS011;11534;51.994;5.692;2022-10-16T10:59:39;10.00;;;2.58;;
22733;SDS011;11534;51.994;5.692;2022-10-16T11:02:13;9.20;;;1.88;;
22733;SDS011;11534;51.994;5.692;2022-10-16T11:05:12;10.07;;;2.17;;
22733;SDS011;11534;51.994;5.692;2022-10-16T11:07:57;13.65;;;3.13;;
22733;SDS011;11534;51.994;5.692;2022-10-16T11:10:27;11.90;;;2.60;;
22733;SDS011;11534;51.994;5.692;2022-10-16T11:13:04;8.27;;;2.05;;
22733;SDS011;11534;51.994;5.692;2022-10-16T11:15:54;14.20;;;2.55;;
22733;SDS011;11534;51.994;5.692;2022-10-16T11:18:38;6.55;;;2.03;;
22733;SDS011;11534;51.994;5.692;2022-10-16T11:21:17;14.10;;;3.15;;
22733;SDS011;11534;51.994;5.692;2022-10-16T11:23:57;10.32;;;2.20;;
22733;SDS011;11534;51.994;5.692;2022-10-16T11:26:35;15.70;;;2.63;;
22733;SDS011;11534;51.994;5.692;2022-10-16T11:29:12;14.48;;;2.17;;
22733;SDS011;11534;51.994;5.692;2022-10-16T11:31:52;12.77;;;2.80;;
22733;SDS011;11534;51.994;5.692;2022-10-16T11:34:44;14.32;;;3.38;;
22733;SDS011;11534;51.994;5.692;2022-10-16T11:37:17;9.48;;;2.25;;
22733;SDS011;11534;51.994;5.692;2022-10-16T11:39:49;14.23;;;2.78;;
22733;SDS011;11534;51.994;5.692;2022-10-16T11:42:22;11.07;;;2.08;;
22733;SDS011;11534;51.994;5.692;2022-10-16T11:50:23;12.02;;;2.10;;
22733;SDS011;11534;51.994;5.692;2022-10-16T11:53:13;7.05;;;1.92;;
22733;SDS011;11534;51.994;5.692;2022-10-16T11:55:47;9.05;;;1.95;;
22733;SDS011;11534;51.994;5.692;2022-10-16T12:08:53;7.90;;;1.70;;
22733;SDS011;11534;51.994;5.692;2022-10-16T12:17:04;13.63;;;2.08;;
22733;SDS011;11534;51.994;5.692;2022-10-16T12:20:12;7.57;;;1.98;;
22733;SDS011;11534;51.994;5.692;2022-10-16T12:22:54;11.32;;;1.90;;
22733;SDS011;11534;51.994;5.692;2022-10-16T12:25:22;9.32;;;2.33;;
22733;SDS011;11534;51.994;5.692;2022-10-16T12:28:03;13.50;;;2.10;;
22733;SDS011;11534;51.994;5.692;2022-10-16T12:30:32;12.95;;;2.25;;
22733;SDS011;11534;51.994;5.692;2022-10-16T12:33:01;12.52;;;2.20;;
22733;SDS011;11534;51.994;5.692;2022-10-16T12:35:30;15.13;;;2.47;;
22733;SDS011;11534;51.994;5.692;2022-10-16T12:38:13;11.80;;;2.50;;
22733;SDS011;11534;51.994;5.692;2022-10-16T12:40:43;9.75;;;2.25;;
22733;SDS011;11534;51.994;5.692;2022-10-16T12:43:58;10.52;;;2.00;;
22733;SDS011;11534;51.994;5.692;2022-10-16T12:46:02;11.15;;;2.58;;
22733;SDS011;11534;51.994;5.692;2022-10-16T12:48:30;11.05;;;2.13;;
22733;SDS011;11534;51.994;5.692;2022-10-16T12:50:56;16.23;;;1.98;;
22733;SDS011;11534;51.994;5.692;2022-10-16T12:53:25;11.80;;;2.45;;
22733;SDS011;11534;51.994;5.692;2022-10-16T12:58:49;14.10;;;2.15;;
22733;SDS011;11534;51.994;5.692;2022-10-16T13:21:10;7.82;;;2.20;;
22733;SDS011;11534;51.994;5.692;2022-10-16T13:29:12;10.18;;;2.33;;
22733;SDS011;11534;51.994;5.692;2022-10-16T13:31:39;9.52;;;2.00;;
22733;SDS011;11534;51.994;5.692;2022-10-16T13:34:11;12.30;;;2.80;;
22733;SDS011;11534;51.994;5.692;2022-10-16T13:36:46;10.82;;;2.20;;
22733;SDS011;11534;51.994;5.692;2022-10-16T13:42:06;12.60;;;2.67;;
22733;SDS011;11534;51.994;5.692;2022-10-16T13:44:43;7.30;;;1.90;;
22733;SDS011;11534;51.994;5.692;2022-10-16T13:47:16;16.25;;;3.10;;
22733;SDS011;11534;51.994;5.692;2022-10-16T13:49:43;8.90;;;2.30;;
22733;SDS011;11534;51.994;5.692;2022-10-16T13:52:19;14.10;;;3.70;;
22733;SDS011;11534;51.994;5.692;2022-10-16T13:54:46;16.65;;;5.40;;
22733;SDS011;11534;51.994;5.692;2022-10-16T13:57:13;10.68;;;2.33;;
22733;SDS011;11534;51.994;5.692;2022-10-16T13:59:40;10.82;;;3.13;;
22733;SDS011;11534;51.994;5.692;2022-10-16T14:05:03;14.52;;;3.10;;
22733;SDS011;11534;51.994;5.692;2022-10-16T14:07:34;13.27;;;1.98;;
22733;SDS011;11534;51.994;5.692;2022-10-16T14:10:02;9.75;;;1.98;;
22733;SDS011;11534;51.994;5.692;2022-10-16T14:12:30;10.57;;;2.35;;
22733;SDS011;11534;51.994;5.692;2022-10-16T14:14:57;11.65;;;2.40;;
22733;SDS011;11534;51.994;5.692;2022-10-16T14:17:24;17.92;;;3.45;;
22733;SDS011;11534;51.994;5.692;2022-10-16T14:19:54;19.83;;;3.53;;
22733;SDS011;11534;51.994;5.692;2022-10-16T14:22:32;24.10;;;6.93;;
22733;SDS011;11534;51.994;5.692;2022-10-16T14:27:44;13.32;;;3.28;;
22733;SDS011;11534;51.994;5.692;2022-10-16T14:30:23;15.43;;;3.90;;
22733;SDS011;11534;51.994;5.692;2022-10-16T14:32:55;9.85;;;2.47;;
22733;SDS011;11534;51.994;5.692;2022-10-16T14:35:29;12.52;;;2.35;;
22733;SDS011;11534;51.994;5.692;2022-10-16T14:38:02;11.32;;;2.58;;
22733;SDS011;11534;51.994;5.692;2022-10-16T14:40:33;18.15;;;2.97;;
22733;SDS011;11534;51.994;5.692;2022-10-16T14:43:02;15.43;;;2.22;;
22733;SDS011;11534;51.994;5.692;2022-10-16T14:45:30;17.58;;;2.42;;
22733;SDS011;11534;51.994;5.692;2022-10-16T14:47:59;13.52;;;2.47;;
22733;SDS011;11534;51.994;5.692;2022-10-16T14:50:27;12.40;;;3.10;;
22733;SDS011;11534;51.994;5.692;2022-10-16T14:52:59;13.43;;;2.30;;
22733;SDS011;11534;51.994;5.692;2022-10-16T14:55:25;16.05;;;2.78;;
22733;SDS011;11534;51.994;5.692;2022-10-16T14:57:51;8.40;;;2.20;;
22733;SDS011;11534;51.994;5.692;2022-10-16T15:00:23;14.18;;;3.03;;
22733;SDS011;11534;51.994;5.692;2022-10-16T15:02:50;14.05;;;2.50;;
22733;SDS011;11534;51.994;5.692;2022-10-16T15:05:20;8.95;;;1.67;;
22733;SDS011;11534;51.994;5.692;2022-10-16T15:07:46;9.55;;;1.92;;
22733;SDS011;11534;51.994;5.692;2022-10-16T15:10:14;12.80;;;2.08;;
22733;SDS011;11534;51.994;5.692;2022-10-16T15:12:40;10.90;;;2.20;;
22733;SDS011;11534;51.994;5.692;2022-10-16T15:15:49;13.35;;;2.30;;
22733;SDS011;11534;51.994;5.692;2022-10-16T15:18:00;12.85;;;2.17;;
22733;SDS011;11534;51.994;5.692;2022-10-16T15:20:28;18.90;;;2.25;;
22733;SDS011;11534;51.994;5.692;2022-10-16T15:22:55;13.13;;;2.13;;
22733;SDS011;11534;51.994;5.692;2022-10-16T15:25:30;16.55;;;3.15;;
22733;SDS011;11534;51.994;5.692;2022-10-16T15:28:02;14.20;;;2.80;;
22733;SDS011;11534;51.994;5.692;2022-10-16T15:30:28;16.83;;;2.92;;
22733;SDS011;11534;51.994;5.692;2022-10-16T15:32:55;11.68;;;2.42;;
22733;SDS011;11534;51.994;5.692;2022-10-16T15:35:36;17.17;;;2.22;;
22733;SDS011;11534;51.994;5.692;2022-10-16T15:38:02;15.18;;;2.88;;
22733;SDS011;11534;51.994;5.692;2022-10-16T15:40:27;16.60;;;2.92;;
22733;SDS011;11534;51.994;5.692;2022-10-16T15:42:53;11.98;;;2.33;;
22733;SDS011;11534;51.994;5.692;2022-10-16T15:45:19;16.60;;;2.58;;
22733;SDS011;11534;51.994;5.692;2022-10-16T15:47:46;17.00;;;3.40;;
22733;SDS011;11534;51.994;5.692;2022-10-16T15:50:12;12.48;;;2.60;;
22733;SDS011;11534;51.994;5.692;2022-10-16T15:52:40;10.95;;;3.13;;
22733;SDS011;11534;51.994;5.692;2022-10-16T15:55:07;10.52;;;2.92;;
22733;SDS011;11534;51.994;5.692;2022-10-16T15:57:37;10.20;;;3.17;;
22733;SDS011;11534;51.994;5.692;2022-10-16T16:00:09;11.07;;;2.88;;
22733;SDS011;11534;51.994;5.692;2022-10-16T16:02:53;9.90;;;3.67;;
22733;SDS011;11534;51.994;5.692;2022-10-16T16:05:21;7.45;;;2.55;;
22733;SDS011;11534;51.994;5.692;2022-10-16T16:07:47;11.80;;;2.88;;
22733;SDS011;11534;51.994;5.692;2022-10-16T16:10:14;11.00;;;2.58;;
22733;SDS011;11534;51.994;5.692;2022-10-16T16:12:40;18.45;;;4.28;;
22733;SDS011;11534;51.994;5.692;2022-10-16T16:15:08;14.50;;;5.60;;
22733;SDS011;11534;51.994;5.692;2022-10-16T16:17:35;21.77;;;9.43;;
22733;SDS011;11534;51.994;5.692;2022-10-16T16:20:01;17.58;;;10.93;;
22733;SDS011;11534;51.994;5.692;2022-10-16T16:22:29;16.30;;;8.40;;
22733;SDS011;11534;51.994;5.692;2022-10-16T16:24:55;15.73;;;7.07;;
22733;SDS011;11534;51.994;5.692;2022-10-16T16:27:23;18.48;;;5.03;;
22733;SDS011;11534;51.994;5.692;2022-10-16T16:29:50;13.40;;;4.15;;
22733;SDS011;11534;51.994;5.692;2022-10-16T16:32:20;15.98;;;2.90;;
22733;SDS011;11534;51.994;5.692;2022-10-16T16:34:45;13.23;;;2.50;;
22733;SDS011;11534;51.994;5.692;2022-10-16T16:37:11;15.13;;;2.50;;
22733;SDS011;11534;51.994;5.692;2022-10-16T16:39:37;12.90;;;2.38;;
22733;SDS011;11534;51.994;5.692;2022-10-16T16:42:03;12.65;;;2.20;;
22733;SDS011;11534;51.994;5.692;2022-10-16T16:44:31;12.45;;;2.80;;
22733;SDS011;11534;51.994;5.692;2022-10-16T16:46:57;11.43;;;2.25;;
22733;SDS011;11534;51.994;5.692;2022-10-16T16:49:22;11.57;;;2.42;;
22733;SDS011;11534;51.994;5.692;2022-10-16T16:51:49;19.65;;;4.65;;
22733;SDS011;11534;51.994;5.692;2022-10-16T16:54:14;11.63;;;3.92;;
22733;SDS011;11534;51.994;5.692;2022-10-16T16:56:41;13.15;;;3.22;;
22733;SDS011;11534;51.994;5.692;2022-10-16T16:59:11;15.02;;;4.68;;
22733;SDS011;11534;51.994;5.692;2022-10-16T17:01:39;19.17;;;5.60;;
22733;SDS011;11534;51.994;5.692;2022-10-16T17:04:04;17.83;;;7.82;;
22733;SDS011;11534;51.994;5.692;2022-10-16T17:06:30;27.02;;;13.85;;
22733;SDS011;11534;51.994;5.692;2022-10-16T17:08:56;49.22;;;25.15;;
22733;SDS011;11534;51.994;5.692;2022-10-16T17:11:24;42.55;;;21.60;;